sensor_id;sensor_type;location;lat;lon;timestamp;pressure;altitude;pressure_sealevel;temperature;humidity
13974;BME280;7060;43.770;4.008;2023-04-25T00:00:07;100826.41;;;14.60;53.34
13974;BME280;7060;43.770;4.008;2023-04-25T00:02:40;100829.28;;;14.58;54.64
13974;BME280;7060;43.770;4.008;2023-04-25T00:05:10;100839.69;;;14.53;55.56
13974;BME280;7060;43.770;4.008;2023-04-25T00:07:39;100831.59;;;14.45;55.90
13974;BME280;7060;43.770;4.008;2023-04-25T00:10:11;100832.78;;;14.42;56.02
13974;BME280;7060;43.770;4.008;2023-04-25T00:12:40;100837.66;;;14.39;56.37
13974;BME280;7060;43.770;4.008;2023-04-25T00:15:10;100837.81;;;14.37;56.61
13974;BME280;7060;43.770;4.008;2023-04-25T00:17:40;100830.09;;;14.34;56.96
13974;BME280;7060;43.770;4.008;2023-04-25T00:20:10;100838.31;;;14.33;56.77
13974;BME280;7060;43.770;4.008;2023-04-25T00:22:39;100819.19;;;14.28;57.06
13974;BME280;7060;43.770;4.008;2023-04-25T00:25:10;100824.88;;;14.24;57.37
13974;BME280;7060;43.770;4.008;2023-04-25T00:27:38;100822.19;;;14.24;57.59
13974;BME280;7060;43.770;4.008;2023-04-25T00:30:10;100808.06;;;14.22;57.26
13974;BME280;7060;43.770;4.008;2023-04-25T00:32:38;100804.88;;;14.19;57.29
13974;BME280;7060;43.770;4.008;2023-04-25T00:35:08;100811.78;;;14.21;57.45
13974;BME280;7060;43.770;4.008;2023-04-25T00:37:36;100794.81;;;14.21;57.61
13974;BME280;7060;43.770;4.008;2023-04-25T00:40:06;100786.91;;;14.19;57.83
13974;BME280;7060;43.770;4.008;2023-04-25T00:42:37;100782.19;;;14.21;57.99
13974;BME280;7060;43.770;4.008;2023-04-25T00:45:06;100781.53;;;14.19;58.37
13974;BME280;7060;43.770;4.008;2023-04-25T00:47:37;100786.38;;;14.16;58.64
13974;BME280;7060;43.770;4.008;2023-04-25T00:50:07;100773.78;;;14.16;58.32
13974;BME280;7060;43.770;4.008;2023-04-25T00:52:37;100787.91;;;14.18;58.54
13974;BME280;7060;43.770;4.008;2023-04-25T00:55:08;100785.38;;;14.17;58.69
13974;BME280;7060;43.770;4.008;2023-04-25T00:57:39;100785.38;;;14.09;59.01
13974;BME280;7060;43.770;4.008;2023-04-25T01:00:09;100788.75;;;14.03;58.93
13974;BME280;7060;43.770;4.008;2023-04-25T01:02:40;100776.31;;;14.02;59.42
13974;BME280;7060;43.770;4.008;2023-04-25T01:05:10;100780.00;;;14.01;59.28
13974;BME280;7060;43.770;4.008;2023-04-25T01:07:39;100776.97;;;13.87;59.60
13974;BME280;7060;43.770;4.008;2023-04-25T01:10:08;100797.13;;;13.92;59.23
13974;BME280;7060;43.770;4.008;2023-04-25T01:12:37;100794.59;;;13.90;59.16
13974;BME280;7060;43.770;4.008;2023-04-25T01:15:07;100783.53;;;13.93;58.85
13974;BME280;7060;43.770;4.008;2023-04-25T01:17:36;100787.06;;;13.94;59.84
13974;BME280;7060;43.770;4.008;2023-04-25T01:20:05;100799.13;;;13.89;59.94
13974;BME280;7060;43.770;4.008;2023-04-25T01:22:37;100781.16;;;13.82;60.02
13974;BME280;7060;43.770;4.008;2023-04-25T01:25:07;100774.09;;;13.81;59.67
13974;BME280;7060;43.770;4.008;2023-04-25T01:27:36;100779.97;;;13.84;59.17
13974;BME280;7060;43.770;4.008;2023-04-25T01:30:06;100792.25;;;13.87;59.09
13974;BME280;7060;43.770;4.008;2023-04-25T01:32:35;100772.09;;;13.91;58.57
13974;BME280;7060;43.770;4.008;2023-04-25T01:35:08;100768.25;;;13.94;58.80
13974;BME280;7060;43.770;4.008;2023-04-25T01:37:38;100782.03;;;13.99;58.48
13974;BME280;7060;43.770;4.008;2023-04-25T01:40:09;100769.94;;;14.03;58.36
13974;BME280;7060;43.770;4.008;2023-04-25T01:42:40;100761.88;;;14.03;58.84
13974;BME280;7060;43.770;4.008;2023-04-25T01:45:11;100770.59;;;14.05;58.97
13974;BME280;7060;43.770;4.008;2023-04-25T01:47:40;100766.56;;;14.01;59.67
13974;BME280;7060;43.770;4.008;2023-04-25T01:50:12;100752.44;;;13.90;59.97
13974;BME280;7060;43.770;4.008;2023-04-25T01:52:42;100758.31;;;13.94;60.39
13974;BME280;7060;43.770;4.008;2023-04-25T01:55:11;100766.22;;;13.96;60.61
13974;BME280;7060;43.770;4.008;2023-04-25T01:57:52;100774.94;;;13.89;60.44
13974;BME280;7060;43.770;4.008;2023-04-25T02:00:28;100774.09;;;13.89;60.66
13974;BME280;7060;43.770;4.008;2023-04-25T02:02:57;100777.13;;;13.86;60.70
13974;BME280;7060;43.770;4.008;2023-04-25T02:05:34;100770.72;;;13.79;60.84
13974;BME280;7060;43.770;4.008;2023-04-25T02:08:08;100763.34;;;13.73;61.38
13974;BME280;7060;43.770;4.008;2023-04-25T02:10:37;100761.50;;;13.73;60.96
13974;BME280;7060;43.770;4.008;2023-04-25T02:13:17;100770.56;;;13.72;61.47
13974;BME280;7060;43.770;4.008;2023-04-25T02:16:21;100766.88;;;13.73;61.01
13974;BME280;7060;43.770;4.008;2023-04-25T02:18:50;100766.19;;;13.79;60.90
13974;BME280;7060;43.770;4.008;2023-04-25T02:21:19;100762.34;;;13.82;61.24
13974;BME280;7060;43.770;4.008;2023-04-25T02:23:49;100764.19;;;13.81;60.32
13974;BME280;7060;43.770;4.008;2023-04-25T02:26:19;100767.03;;;13.80;60.87
13974;BME280;7060;43.770;4.008;2023-04-25T02:28:48;100754.28;;;13.82;61.29
13974;BME280;7060;43.770;4.008;2023-04-25T02:31:19;100767.03;;;13.80;61.68
13974;BME280;7060;43.770;4.008;2023-04-25T02:33:47;100769.88;;;13.70;62.18
13974;BME280;7060;43.770;4.008;2023-04-25T02:36:16;100760.31;;;13.68;62.21
13974;BME280;7060;43.770;4.008;2023-04-25T02:38:45;100746.38;;;13.64;61.64
13974;BME280;7060;43.770;4.008;2023-04-25T02:41:15;100755.94;;;13.67;61.50
13974;BME280;7060;43.770;4.008;2023-04-25T02:43:43;100759.97;;;13.63;61.54
13974;BME280;7060;43.770;4.008;2023-04-25T02:46:11;100760.97;;;13.62;61.76
13974;BME280;7060;43.770;4.008;2023-04-25T02:48:40;100767.50;;;13.59;62.26
13974;BME280;7060;43.770;4.008;2023-04-25T02:51:08;100759.78;;;13.56;61.20
13974;BME280;7060;43.770;4.008;2023-04-25T02:53:37;100744.16;;;13.60;60.28
13974;BME280;7060;43.770;4.008;2023-04-25T02:56:06;100757.13;;;13.64;60.90
13974;BME280;7060;43.770;4.008;2023-04-25T02:58:35;100757.59;;;13.60;60.75
13974;BME280;7060;43.770;4.008;2023-04-25T03:01:04;100758.28;;;13.62;60.39
13974;BME280;7060;43.770;4.008;2023-04-25T03:03:32;100760.28;;;13.60;60.53
13974;BME280;7060;43.770;4.008;2023-04-25T03:06:01;100763.50;;;13.63;60.72
13974;BME280;7060;43.770;4.008;2023-04-25T03:08:32;100763.31;;;13.65;61.04
13974;BME280;7060;43.770;4.008;2023-04-25T03:11:01;100757.94;;;13.65;61.10
13974;BME280;7060;43.770;4.008;2023-04-25T03:13:30;100726.88;;;13.46;61.48
13974;BME280;7060;43.770;4.008;2023-04-25T03:16:00;100749.38;;;13.61;60.89
13974;BME280;7060;43.770;4.008;2023-04-25T03:18:29;100749.38;;;13.61;60.82
13974;BME280;7060;43.770;4.008;2023-04-25T03:20:58;100745.34;;;13.57;61.26
13974;BME280;7060;43.770;4.008;2023-04-25T03:23:26;100750.88;;;13.47;62.16
13974;BME280;7060;43.770;4.008;2023-04-25T03:25:54;100752.38;;;13.42;61.88
13974;BME280;7060;43.770;4.008;2023-04-25T03:28:23;100762.56;;;13.38;62.26
13974;BME280;7060;43.770;4.008;2023-04-25T03:30:52;100751.63;;;13.32;62.38
13974;BME280;7060;43.770;4.008;2023-04-25T03:33:22;100750.41;;;13.26;62.90
13974;BME280;7060;43.770;4.008;2023-04-25T03:35:51;100749.09;;;13.22;62.55
13974;BME280;7060;43.770;4.008;2023-04-25T03:38:20;100752.59;;;13.22;62.26
13974;BME280;7060;43.770;4.008;2023-04-25T03:40:49;100756.63;;;13.27;62.73
13974;BME280;7060;43.770;4.008;2023-04-25T03:43:38;100757.47;;;13.27;62.25
13974;BME280;7060;43.770;4.008;2023-04-25T03:46:10;100751.09;;;13.28;62.79
13974;BME280;7060;43.770;4.008;2023-04-25T03:48:41;100742.38;;;13.26;62.49
13974;BME280;7060;43.770;4.008;2023-04-25T03:51:16;100745.38;;;13.23;63.38
13974;BME280;7060;43.770;4.008;2023-04-25T03:53:44;100746.03;;;13.17;63.29
13974;BME280;7060;43.770;4.008;2023-04-25T03:56:19;100739.97;;;13.07;63.61
13974;BME280;7060;43.770;4.008;2023-04-25T03:58:56;100735.59;;;13.06;63.07
13974;BME280;7060;43.770;4.008;2023-04-25T04:01:26;100749.69;;;13.08;63.30
13974;BME280;7060;43.770;4.008;2023-04-25T04:03:58;100752.56;;;13.14;62.67
13974;BME280;7060;43.770;4.008;2023-04-25T04:06:28;100744.38;;;13.16;62.61
13974;BME280;7060;43.770;4.008;2023-04-25T04:09:03;100759.09;;;13.12;62.99
13974;BME280;7060;43.770;4.008;2023-04-25T04:11:36;100756.22;;;13.05;63.15
13974;BME280;7060;43.770;4.008;2023-04-25T04:14:06;100735.00;;;12.86;63.49
13974;BME280;7060;43.770;4.008;2023-04-25T04:16:37;100740.59;;;12.93;63.42
13974;BME280;7060;43.770;4.008;2023-04-25T04:19:07;100747.28;;;12.97;63.58
13974;BME280;7060;43.770;4.008;2023-04-25T04:21:36;100756.38;;;13.04;63.05
13974;BME280;7060;43.770;4.008;2023-04-25T04:24:07;100735.06;;;13.02;63.29
13974;BME280;7060;43.770;4.008;2023-04-25T04:26:47;100704.78;;;12.76;62.96
13974;BME280;7060;43.770;4.008;2023-04-25T04:29:36;100746.75;;;12.85;63.18
13974;BME280;7060;43.770;4.008;2023-04-25T04:32:10;100743.91;;;12.86;63.77
13974;BME280;7060;43.770;4.008;2023-04-25T04:34:40;100745.59;;;12.96;63.24
13974;BME280;7060;43.770;4.008;2023-04-25T04:37:12;100740.59;;;12.93;63.81
13974;BME280;7060;43.770;4.008;2023-04-25T04:39:42;100755.34;;;12.97;64.18
13974;BME280;7060;43.770;4.008;2023-04-25T04:42:37;100742.59;;;12.91;64.40
13974;BME280;7060;43.770;4.008;2023-04-25T04:45:14;100749.13;;;12.88;64.45
13974;BME280;7060;43.770;4.008;2023-04-25T04:47:55;100748.91;;;12.81;65.07
13974;BME280;7060;43.770;4.008;2023-04-25T04:50:58;100748.00;;;12.73;64.96
13974;BME280;7060;43.770;4.008;2023-04-25T04:53:49;100742.69;;;12.81;65.21
13974;BME280;7060;43.770;4.008;2023-04-25T04:56:18;100742.91;;;12.87;64.99
13974;BME280;7060;43.770;4.008;2023-04-25T04:59:02;100747.75;;;12.84;65.06
13974;BME280;7060;43.770;4.008;2023-04-25T05:01:52;100751.22;;;12.76;65.34
13974;BME280;7060;43.770;4.008;2023-04-25T05:04:42;100760.31;;;12.83;64.79
13974;BME280;7060;43.770;4.008;2023-04-25T05:07:30;100766.91;;;12.89;65.28
13974;BME280;7060;43.770;4.008;2023-04-25T05:10:21;100773.09;;;12.89;65.33
13974;BME280;7060;43.770;4.008;2023-04-25T05:13:19;100764.69;;;12.84;65.45
13974;BME280;7060;43.770;4.008;2023-04-25T05:16:00;100774.56;;;12.84;65.75
13974;BME280;7060;43.770;4.008;2023-04-25T05:18:55;100769.38;;;12.82;65.81
13974;BME280;7060;43.770;4.008;2023-04-25T05:21:53;100764.47;;;12.78;65.75
13974;BME280;7060;43.770;4.008;2023-04-25T05:24:41;100780.41;;;12.79;66.01
13974;BME280;7060;43.770;4.008;2023-04-25T05:27:27;100788.16;;;12.82;66.23
13974;BME280;7060;43.770;4.008;2023-04-25T05:30:18;100784.47;;;12.83;66.36
13974;BME280;7060;43.770;4.008;2023-04-25T05:32:57;100774.38;;;12.77;66.40
13974;BME280;7060;43.770;4.008;2023-04-25T05:35:27;100782.25;;;12.79;66.86
13974;BME280;7060;43.770;4.008;2023-04-25T05:37:56;100793.34;;;12.84;66.44
13974;BME280;7060;43.770;4.008;2023-04-25T05:40:45;100785.53;;;12.91;65.98
13974;BME280;7060;43.770;4.008;2023-04-25T05:43:42;100779.16;;;12.92;65.99
13974;BME280;7060;43.770;4.008;2023-04-25T05:46:37;100784.53;;;12.92;66.44
13974;BME280;7060;43.770;4.008;2023-04-25T05:49:18;100796.25;;;12.91;65.98
13974;BME280;7060;43.770;4.008;2023-04-25T05:51:55;100799.97;;;12.98;66.20
13974;BME280;7060;43.770;4.008;2023-04-25T05:54:46;100801.31;;;13.02;66.24
13974;BME280;7060;43.770;4.008;2023-04-25T05:57:24;100781.69;;;13.01;66.23
13974;BME280;7060;43.770;4.008;2023-04-25T05:59:54;100782.53;;;12.94;65.94
13974;BME280;7060;43.770;4.008;2023-04-25T06:02:40;100788.88;;;12.93;66.56
13974;BME280;7060;43.770;4.008;2023-04-25T06:05:11;100789.91;;;13.00;66.00
13974;BME280;7060;43.770;4.008;2023-04-25T06:07:40;100791.97;;;13.06;65.59
13974;BME280;7060;43.770;4.008;2023-04-25T06:10:09;100793.69;;;13.15;65.86
13974;BME280;7060;43.770;4.008;2023-04-25T06:12:39;100800.41;;;13.19;65.32
13974;BME280;7060;43.770;4.008;2023-04-25T06:15:08;100788.69;;;13.20;65.48
13974;BME280;7060;43.770;4.008;2023-04-25T06:17:54;100784.47;;;13.26;65.47
13974;BME280;7060;43.770;4.008;2023-04-25T06:20:24;100779.31;;;13.32;65.25
13974;BME280;7060;43.770;4.008;2023-04-25T06:22:55;100776.97;;;13.37;64.74
13974;BME280;7060;43.770;4.008;2023-04-25T06:25:50;100779.22;;;13.42;65.33
13974;BME280;7060;43.770;4.008;2023-04-25T06:28:20;100788.13;;;13.50;65.23
13974;BME280;7060;43.770;4.008;2023-04-25T06:30:50;100790.16;;;13.48;65.36
13974;BME280;7060;43.770;4.008;2023-04-25T06:33:19;100797.22;;;13.49;65.80
13974;BME280;7060;43.770;4.008;2023-04-25T06:35:49;100795.34;;;13.50;66.15
13974;BME280;7060;43.770;4.008;2023-04-25T06:38:22;100800.91;;;13.48;66.10
13974;BME280;7060;43.770;4.008;2023-04-25T06:40:52;100771.94;;;13.34;66.22
13974;BME280;7060;43.770;4.008;2023-04-25T06:43:22;100802.41;;;13.51;66.53
13974;BME280;7060;43.770;4.008;2023-04-25T06:46:03;100797.03;;;13.51;66.67
13974;BME280;7060;43.770;4.008;2023-04-25T06:48:38;100794.69;;;13.56;65.97
13974;BME280;7060;43.770;4.008;2023-04-25T06:51:06;100792.69;;;13.58;66.22
13974;BME280;7060;43.770;4.008;2023-04-25T06:53:36;100798.75;;;13.60;66.03
13974;BME280;7060;43.770;4.008;2023-04-25T06:56:07;100786.63;;;13.56;65.70
13974;BME280;7060;43.770;4.008;2023-04-25T06:58:57;100794.19;;;13.61;66.14
13974;BME280;7060;43.770;4.008;2023-04-25T07:01:31;100802.59;;;13.57;65.50
13974;BME280;7060;43.770;4.008;2023-04-25T07:04:03;100805.13;;;13.59;65.38
13974;BME280;7060;43.770;4.008;2023-04-25T07:06:35;100791.03;;;13.65;65.49
13974;BME280;7060;43.770;4.008;2023-04-25T07:09:05;100796.59;;;13.72;66.00
13974;BME280;7060;43.770;4.008;2023-04-25T07:11:34;100806.50;;;13.71;65.79
13974;BME280;7060;43.770;4.008;2023-04-25T07:14:04;100809.34;;;13.70;65.81
13974;BME280;7060;43.770;4.008;2023-04-25T07:16:33;100812.38;;;13.75;65.79
13974;BME280;7060;43.770;4.008;2023-04-25T07:19:02;100814.91;;;13.76;64.84
13974;BME280;7060;43.770;4.008;2023-04-25T07:21:30;100817.75;;;13.75;64.76
13974;BME280;7060;43.770;4.008;2023-04-25T07:24:02;100827.31;;;13.77;63.59
13974;BME280;7060;43.770;4.008;2023-04-25T07:26:35;100831.19;;;13.83;63.04
13974;BME280;7060;43.770;4.008;2023-04-25T07:29:35;100831.72;;;13.86;62.61
13974;BME280;7060;43.770;4.008;2023-04-25T07:32:04;100840.28;;;13.90;62.27
13974;BME280;7060;43.770;4.008;2023-04-25T07:34:33;100835.78;;;13.99;61.66
13974;BME280;7060;43.770;4.008;2023-04-25T07:37:04;100843.69;;;14.08;61.87
13974;BME280;7060;43.770;4.008;2023-04-25T07:39:41;100843.69;;;14.16;61.61
13974;BME280;7060;43.770;4.008;2023-04-25T07:42:10;100827.41;;;14.26;61.44
13974;BME280;7060;43.770;4.008;2023-04-25T07:44:43;100829.06;;;14.35;60.81
13974;BME280;7060;43.770;4.008;2023-04-25T07:47:13;100848.75;;;14.44;60.64
13974;BME280;7060;43.770;4.008;2023-04-25T07:49:42;100838.00;;;14.52;60.11
13974;BME280;7060;43.770;4.008;2023-04-25T07:52:12;100839.84;;;14.60;60.09
13974;BME280;7060;43.770;4.008;2023-04-25T07:54:47;100837.34;;;14.66;60.59
13974;BME280;7060;43.770;4.008;2023-04-25T07:57:20;100838.00;;;14.76;60.55
13974;BME280;7060;43.770;4.008;2023-04-25T07:59:51;100847.59;;;14.79;59.09
13974;BME280;7060;43.770;4.008;2023-04-25T08:02:20;100846.06;;;14.84;59.31
13974;BME280;7060;43.770;4.008;2023-04-25T08:04:49;100839.31;;;14.97;59.17
13974;BME280;7060;43.770;4.008;2023-04-25T08:07:20;100831.53;;;15.10;58.65
13974;BME280;7060;43.770;4.008;2023-04-25T08:09:52;100830.13;;;15.22;58.76
13974;BME280;7060;43.770;4.008;2023-04-25T08:12:31;100832.97;;;15.37;58.32
13974;BME280;7060;43.770;4.008;2023-04-25T08:15:02;100829.34;;;15.52;56.56
13974;BME280;7060;43.770;4.008;2023-04-25T08:17:34;100828.66;;;15.67;56.60
13974;BME280;7060;43.770;4.008;2023-04-25T08:20:03;100834.63;;;15.77;53.36
13974;BME280;7060;43.770;4.008;2023-04-25T08:22:33;100822.50;;;15.81;52.67
13974;BME280;7060;43.770;4.008;2023-04-25T08:25:16;100825.81;;;15.91;53.47
13974;BME280;7060;43.770;4.008;2023-04-25T08:27:45;100817.94;;;16.04;54.14
13974;BME280;7060;43.770;4.008;2023-04-25T08:30:16;100832.34;;;16.19;53.24
13974;BME280;7060;43.770;4.008;2023-04-25T08:32:45;100834.50;;;16.24;52.44
13974;BME280;7060;43.770;4.008;2023-04-25T08:35:34;100840.28;;;16.21;50.85
13974;BME280;7060;43.770;4.008;2023-04-25T08:38:03;100843.81;;;16.21;51.20
13974;BME280;7060;43.770;4.008;2023-04-25T08:40:35;100838.69;;;16.26;51.04
13974;BME280;7060;43.770;4.008;2023-04-25T08:43:13;100849.06;;;16.38;51.24
13974;BME280;7060;43.770;4.008;2023-04-25T08:45:44;100842.59;;;16.47;50.67
13974;BME280;7060;43.770;4.008;2023-04-25T08:48:24;100849.41;;;16.57;50.43
13974;BME280;7060;43.770;4.008;2023-04-25T08:50:56;100847.31;;;16.68;50.00
13974;BME280;7060;43.770;4.008;2023-04-25T08:53:27;100848.53;;;16.80;49.40
13974;BME280;7060;43.770;4.008;2023-04-25T08:56:00;100846.97;;;16.85;47.03
13974;BME280;7060;43.770;4.008;2023-04-25T08:58:33;100855.75;;;16.87;46.86
13974;BME280;7060;43.770;4.008;2023-04-25T09:01:04;100856.69;;;16.95;46.81
13974;BME280;7060;43.770;4.008;2023-04-25T09:03:40;100849.16;;;17.05;47.00
13974;BME280;7060;43.770;4.008;2023-04-25T09:06:11;100867.41;;;17.17;46.75
13974;BME280;7060;43.770;4.008;2023-04-25T09:08:39;100861.63;;;17.35;46.59
13974;BME280;7060;43.770;4.008;2023-04-25T09:11:09;100870.88;;;17.55;46.23
13974;BME280;7060;43.770;4.008;2023-04-25T09:13:37;100857.06;;;17.65;46.59
13974;BME280;7060;43.770;4.008;2023-04-25T09:16:20;100861.72;;;17.71;46.10
13974;BME280;7060;43.770;4.008;2023-04-25T09:19:04;100856.31;;;17.86;46.33
13974;BME280;7060;43.770;4.008;2023-04-25T09:21:34;100853.72;;;17.99;46.14
13974;BME280;7060;43.770;4.008;2023-04-25T09:24:04;100856.84;;;18.17;45.40
13974;BME280;7060;43.770;4.008;2023-04-25T09:26:35;100858.38;;;18.26;44.71
13974;BME280;7060;43.770;4.008;2023-04-25T09:29:07;100848.34;;;18.42;44.23
13974;BME280;7060;43.770;4.008;2023-04-25T09:31:40;100852.88;;;18.56;43.70
13974;BME280;7060;43.770;4.008;2023-04-25T09:34:10;100850.72;;;18.73;44.09
13974;BME280;7060;43.770;4.008;2023-04-25T09:36:48;100847.91;;;18.87;43.58
13974;BME280;7060;43.770;4.008;2023-04-25T09:39:38;100839.41;;;18.90;43.03
13974;BME280;7060;43.770;4.008;2023-04-25T09:42:13;100836.88;;;18.89;43.54
13974;BME280;7060;43.770;4.008;2023-04-25T09:44:43;100841.94;;;18.99;43.50
13974;BME280;7060;43.770;4.008;2023-04-25T09:47:15;100840.81;;;19.14;42.84
13974;BME280;7060;43.770;4.008;2023-04-25T09:49:45;100825.63;;;19.20;42.60
13974;BME280;7060;43.770;4.008;2023-04-25T09:52:15;100821.06;;;19.27;42.76
13974;BME280;7060;43.770;4.008;2023-04-25T09:55:07;100838.53;;;19.52;43.22
13974;BME280;7060;43.770;4.008;2023-04-25T09:57:36;100845.69;;;19.67;42.22
13974;BME280;7060;43.770;4.008;2023-04-25T10:00:07;100846.56;;;19.74;41.93
13974;BME280;7060;43.770;4.008;2023-04-25T10:02:46;100841.94;;;19.68;41.65
13974;BME280;7060;43.770;4.008;2023-04-25T10:05:49;100836.47;;;19.61;41.92
13974;BME280;7060;43.770;4.008;2023-04-25T10:08:19;100841.75;;;19.69;41.83
13974;BME280;7060;43.770;4.008;2023-04-25T10:10:49;100839.06;;;19.76;42.71
13974;BME280;7060;43.770;4.008;2023-04-25T10:13:18;100834.91;;;19.86;42.60
13974;BME280;7060;43.770;4.008;2023-04-25T10:15:48;100830.53;;;19.92;43.00
13974;BME280;7060;43.770;4.008;2023-04-25T10:18:18;100824.31;;;19.98;42.72
13974;BME280;7060;43.770;4.008;2023-04-25T10:20:47;100825.16;;;20.05;42.41
13974;BME280;7060;43.770;4.008;2023-04-25T10:23:15;100825.84;;;20.20;41.77
13974;BME280;7060;43.770;4.008;2023-04-25T10:25:44;100824.19;;;20.26;41.67
13974;BME280;7060;43.770;4.008;2023-04-25T10:28:13;100826.06;;;20.25;41.79
13974;BME280;7060;43.770;4.008;2023-04-25T10:30:56;100828.53;;;20.34;41.98
13974;BME280;7060;43.770;4.008;2023-04-25T10:33:37;100801.63;;;20.25;41.72
13974;BME280;7060;43.770;4.008;2023-04-25T10:36:10;100825.44;;;20.43;41.28
13974;BME280;7060;43.770;4.008;2023-04-25T10:38:39;100812.03;;;20.35;40.72
13974;BME280;7060;43.770;4.008;2023-04-25T10:41:09;100786.09;;;20.13;41.32
13974;BME280;7060;43.770;4.008;2023-04-25T10:43:39;100815.19;;;20.25;41.96
13974;BME280;7060;43.770;4.008;2023-04-25T10:46:16;100810.81;;;20.38;42.51
13974;BME280;7060;43.770;4.008;2023-04-25T10:48:48;100796.63;;;20.55;41.63
13974;BME280;7060;43.770;4.008;2023-04-25T10:51:21;100792.84;;;20.76;41.48
13974;BME280;7060;43.770;4.008;2023-04-25T10:53:58;100795.31;;;21.04;42.00
13974;BME280;7060;43.770;4.008;2023-04-25T10:56:28;100784.19;;;21.19;41.82
13974;BME280;7060;43.770;4.008;2023-04-25T10:59:07;100786.72;;;21.14;41.15
13974;BME280;7060;43.770;4.008;2023-04-25T11:01:39;100785.69;;;21.15;41.77
13974;BME280;7060;43.770;4.008;2023-04-25T11:04:25;100785.63;;;21.21;41.10
13974;BME280;7060;43.770;4.008;2023-04-25T11:07:05;100780.59;;;21.25;41.19
13974;BME280;7060;43.770;4.008;2023-04-25T11:09:38;100778.09;;;21.30;41.25
13974;BME280;7060;43.770;4.008;2023-04-25T11:12:08;100787.28;;;21.29;40.18
13974;BME280;7060;43.770;4.008;2023-04-25T11:14:59;100778.31;;;21.22;40.38
13974;BME280;7060;43.770;4.008;2023-04-25T11:17:28;100782.69;;;21.23;40.55
13974;BME280;7060;43.770;4.008;2023-04-25T11:19:59;100779.78;;;21.18;41.83
13974;BME280;7060;43.770;4.008;2023-04-25T11:22:27;100777.56;;;21.02;40.94
13974;BME280;7060;43.770;4.008;2023-04-25T11:24:56;100773.16;;;21.01;41.17
13974;BME280;7060;43.770;4.008;2023-04-25T11:27:25;100770.59;;;21.19;40.65
13974;BME280;7060;43.770;4.008;2023-04-25T11:29:54;100762.19;;;21.34;40.62
13974;BME280;7060;43.770;4.008;2023-04-25T11:32:23;100752.69;;;21.49;40.04
13974;BME280;7060;43.770;4.008;2023-04-25T11:34:53;100761.88;;;21.55;39.03
13974;BME280;7060;43.770;4.008;2023-04-25T11:37:23;100761.66;;;21.50;39.99
13974;BME280;7060;43.770;4.008;2023-04-25T11:39:52;100754.63;;;21.42;39.82
13974;BME280;7060;43.770;4.008;2023-04-25T11:42:20;100749.88;;;21.18;39.94
13974;BME280;7060;43.770;4.008;2023-04-25T11:44:49;100745.13;;;21.13;39.67
13974;BME280;7060;43.770;4.008;2023-04-25T11:47:17;100745.50;;;21.17;40.41
13974;BME280;7060;43.770;4.008;2023-04-25T11:49:45;100744.91;;;21.08;39.78
13974;BME280;7060;43.770;4.008;2023-04-25T11:52:14;100736.50;;;21.16;40.48
13974;BME280;7060;43.770;4.008;2023-04-25T11:54:44;100614.84;;;20.60;39.83
13974;BME280;7060;43.770;4.008;2023-04-25T11:57:13;100720.41;;;21.59;40.16
13974;BME280;7060;43.770;4.008;2023-04-25T11:59:42;100709.81;;;21.76;38.32
13974;BME280;7060;43.770;4.008;2023-04-25T12:02:23;100711.47;;;21.84;39.01
13974;BME280;7060;43.770;4.008;2023-04-25T12:04:52;100723.94;;;21.98;38.74
13974;BME280;7060;43.770;4.008;2023-04-25T12:07:21;100717.34;;;22.12;37.83
13974;BME280;7060;43.770;4.008;2023-04-25T12:09:57;100693.88;;;22.11;38.57
13974;BME280;7060;43.770;4.008;2023-04-25T12:12:27;100701.00;;;22.37;38.62
13974;BME280;7060;43.770;4.008;2023-04-25T12:14:55;100696.31;;;22.44;38.24
13974;BME280;7060;43.770;4.008;2023-04-25T12:17:24;100698.22;;;22.44;37.18
13974;BME280;7060;43.770;4.008;2023-04-25T12:19:52;100702.25;;;22.35;37.63
13974;BME280;7060;43.770;4.008;2023-04-25T12:22:22;100681.72;;;22.14;37.37
13974;BME280;7060;43.770;4.008;2023-04-25T12:24:50;100693.72;;;22.31;37.77
13974;BME280;7060;43.770;4.008;2023-04-25T12:27:25;100704.72;;;22.43;37.91
13974;BME280;7060;43.770;4.008;2023-04-25T12:29:55;100700.50;;;22.47;37.44
13974;BME280;7060;43.770;4.008;2023-04-25T12:32:24;100690.19;;;22.49;37.70
13974;BME280;7060;43.770;4.008;2023-04-25T12:34:53;100676.63;;;22.67;36.97
13974;BME280;7060;43.770;4.008;2023-04-25T12:37:21;100672.09;;;22.79;37.00
13974;BME280;7060;43.770;4.008;2023-04-25T12:39:50;100672.91;;;22.98;37.01
13974;BME280;7060;43.770;4.008;2023-04-25T12:42:18;100673.44;;;23.07;36.83
13974;BME280;7060;43.770;4.008;2023-04-25T12:44:48;100669.16;;;23.29;37.76
13974;BME280;7060;43.770;4.008;2023-04-25T12:47:17;100652.97;;;23.46;36.22
13974;BME280;7060;43.770;4.008;2023-04-25T12:49:45;100644.66;;;23.41;34.47
13974;BME280;7060;43.770;4.008;2023-04-25T12:52:14;100643.09;;;23.33;35.29
13974;BME280;7060;43.770;4.008;2023-04-25T12:54:42;100635.75;;;23.45;34.66
13974;BME280;7060;43.770;4.008;2023-04-25T12:57:11;100649.56;;;23.50;33.86
13974;BME280;7060;43.770;4.008;2023-04-25T12:59:39;100643.34;;;23.43;33.83
13974;BME280;7060;43.770;4.008;2023-04-25T13:02:09;100623.66;;;23.41;33.44
13974;BME280;7060;43.770;4.008;2023-04-25T13:04:38;100634.41;;;23.36;34.86
13974;BME280;7060;43.770;4.008;2023-04-25T13:07:06;100630.81;;;23.24;34.76
13974;BME280;7060;43.770;4.008;2023-04-25T13:09:35;100631.13;;;23.16;34.39
13974;BME280;7060;43.770;4.008;2023-04-25T13:12:03;100625.97;;;23.08;35.52
13974;BME280;7060;43.770;4.008;2023-04-25T13:14:32;100629.31;;;23.10;37.11
13974;BME280;7060;43.770;4.008;2023-04-25T13:17:00;100621.63;;;23.07;36.14
13974;BME280;7060;43.770;4.008;2023-04-25T13:19:30;100620.41;;;23.03;36.13
13974;BME280;7060;43.770;4.008;2023-04-25T13:21:59;100613.16;;;22.96;37.07
13974;BME280;7060;43.770;4.008;2023-04-25T13:24:28;100616.03;;;23.02;36.79
13974;BME280;7060;43.770;4.008;2023-04-25T13:26:56;100614.34;;;23.01;35.87
13974;BME280;7060;43.770;4.008;2023-04-25T13:29:25;100615.59;;;23.16;35.91